메인 페이지
METAR-TAF:

METAR-TAF

공항 :

Naval Air Station Lemoore (Reeves Field)

Lemoore, 캘리포니아, 미국

위도: 36-18-13N, 경도: 119-56-17W, 고도: 71m

현재 날씨관측

예보는 2 시간 38분 전, 00:56시(UTC)에 발표되었습니다.
무풍
온도 13°C
습도 54%
기압 1015 hPa
시정: 4.0km
고도 22000ft 상공 구름 조금
연무

METAR: KNLC 170056Z 00000KT 2 1/2SM HZ FEW220 13/04 A2997 RMK SLPNO RH/52 T01330039 LAST

시각: 19:34 (03:34 UTC)

예보

예보 대상 시간: 16일 23시부터 17일 23시까지 (UTC)
여러 방향의 바람 6kt
시정: 4000m
고도 20000ft 상공 구름 조금
연기, 연무
일시적
17일 00시부터 17일 06시까지 (UTC)
시정: 4800m
연기, 연무
17일 0600시부터 (UTC)
여러 방향의 바람 6kt
시정: 1815m
맑음
연기, 연무

TAF: KNLC 1623/1723 VRB06KT 4000 FU HZ FEW200 QNH2994INS TEMPO 1700/1706 4800 FU HZ FM170600 VRB06KT 4800 FU HZ SKC QNH2990INS LAST NO AMDS AFT 1701 NEXT 1815 T02/1713Z T23/1723Z FS30012

4,000개 이상의 공항 관측 자료 및 예보 (METAR 및 TAF 보고).

지도상에서 검색 가능한 기상관측소가 노란 점과 빨간 점으로 표시되어 있습니다.

기상관측소 명을 보려면 표시 위로 마우스를 이동하세요.

날씨 관측과 예보를 보려면 클릭하세요.

지도 변경 : 확대하려면 엑스 표시가 있는 녹색 버튼, 축소하려면 빼기 표시가 있는 녹색 버튼, 다음 페이지의 지도를 보려면 녹색 화살표를 클릭하세요.


METAR-TAF: